Greenville Spartanburg International Airport
KGSP : now visible

Airfield :











YOU CAN JOIN US ON...

 
LOGIN :

Register | Disclaimer

   EN    FR    IT 

 









Legend :    VFR   Marginal VFR   IFR   Intensive IFR   Very Intensive IFR
Visi :
Ceiling :
>= 8 km
>= 3000ft
5 to 8 km
1000 to 3000 ft
1500m to 5 km
500 to 1000 ft
800 to 1500m
200 to 500 ft
< 800m
< 200 ft
Symbols :   Thunderstorms  Fog  Heavy snow  Heavy precipitations  Wind > 20 kt






- Airport Elevation : 964 ft
- IATA code : GSP


KGSP - Greenville Spartanburg International

CURRENT METAR :
  • 081853Z VRB04KT 10SM CLR 29/14 A2976 RMK AO2 SLP064 T02890144

EXPIRED METARs :
  • 081753Z 00000KT 10SM SCT050 28/15 A2979 RMK AO2 SLP077 T02830150 10283 20167 58015
  • 081653Z VRB05KT 10SM SCT055 27/14 A2981 RMK AO2 SLP085 T02670144

TAF KGSP
Valid from the 08 at 18:00 until the 09 at 18:00 UTC


081736Z 0818/0918 27007KT P6SM SCT060 BKN250
FM082100 24009KT P6SM SCT060 BKN250
FM090000 24006KT P6SM SCT060 BKN250
FM090900 26011KT P6SM BKN060
PROB30 0909/0912 4SM TSRA BR OVC025CB
FM091400 28014G24KT P6SM FEW060



MET'MAP, your aeronautical weather chart ! - Copyright ORBIFLY December 2007 - Disclaimer

ORBIFLY MET'MAP TEAM :

Programming & Development : Alexandra Zaïnal
Concept & original design : Baudouin d'Aumeries
Assistance for programming : Marc-Olivier Méhu
Technical & hardware support : Manuel Goepfert

Contact : metmap@orbifly.com




SOURCES & CREDITS :

   NOAA       Earth
Advisory